Adams, Indiana
Current Conditions -  °F | °C
As of 11:45 AM on Saturday 20 Dec 2014 (Local Time) from KBAK Reporting Station
Overcast Overcast  
Wind Chill: 30°   Ceiling: 1400
Heat Index: 30°   Visibility: 10mi
Dew Point: 27°   Wind: 3mph
Humidity: 86%   Direction: 360°N
Pressure: 30.32"   Gusts: NA
Location:  39.3206°N, 85.4768°W
Report Text: KBAK 201645Z 36003KT 10SM OVC014 M01/M03 A3032
Loading
Personal Weather Stations






























Interactive Weather Map New forecast layout! Learn more

10-Day Weather Forecast

Advertisements
Track Severe Weather on mobile